Terminal Aerodrome Forecast
Issued by NWS

Home | Current Version | Previous Version | Graphics & Text | Print | Product List | Glossary On
Versions: 1 2 3 4 5 6 7 8 9 10 11 12 13 14 15 16 17 18
000
FTUS43 KGRB 270700 AAA
TAFATW
TAF AMD
KATW 270729Z 2707/2806 23005KT P6SM SCT150
      TEMPO 2707/2711 4SM -SHRA BR
     FM271500 27011KT P6SM VCSH SCT040 BKN060
      TEMPO 2716/2720 3SM -SHRA BR SCT020 BKN035
     FM272200 36012KT P6SM SCT015 BKN050=

USA.gov is the U.S. government's official web portal to all federal, state and local government web resources and services.